Airfield :
LOGIN :

Register | Disclaimer

   EN    FR    IT 

 










Legend :    VFR   Marginal VFR   IFR   Intensive IFR   Very Intensive IFR
Visi :
Ceiling :
>= 8 km
>= 3000ft
5 to 8 km
1000 to 3000 ft
1500m to 5 km
500 to 1000 ft
800 to 1500m
200 to 500 ft
< 800m
< 200 ft
Symbols :   Thunderstorms  Fog  Heavy snow  Heavy precipitations  Wind > 20 kt
SIGMETs :     Misc.  Thunderstorms  Icing  Turbulence  Mountain Waves  Volcanic Ashes







- Airport Elevation : 245 ft


ETHS - Fassberg

CURRENT METAR :
  • 172334Z 35010KT 4000 -SHSN BR BKN010 BKN025 M00/M01 Q1007 GRN

EXPIRED METARs :
  • 172320Z 36011KT 1500 SHSN BR BKN008 BKN015 M00/M02 Q1007 AMB
  • 172246Z 01013KT 5000 -SHSN BR BKN010 BKN020 01/M01 Q1005 GRN
  • 172220Z 30011KT 3000 -SHSN BR BKN008 BKN013 01/M01 Q1004 YLO
  • 172203Z 29010KT 4000 -SHSN BKN010 01/M01 Q1004 GRN
  • 172120Z 29014KT 9999 SCT010 BKN018 01/M01 Q1003 WHT

TAF AMD TAF ETHS
Valid from the 17 at 15:00 until the 18 at 00:00 UTC


171631Z 1715/1724 26012KT 9999 NSW SCT040 BKN100
TEMPO 1715/1721 27015G25KT 3000 SHRASN BKN010 BKN015CB
TEMPO 1721/1724 27015G25KT 1000 SHSN BKN006 BKN015CB CANCEL 1720Z
No reported NOTAMs for that airfield.



MET'MAP, your aeronautical weather chart ! - Copyright ORBIFLY December 2007 - Disclaimer

ORBIFLY MET'MAP TEAM :

Programming & Development : Alexandra Zaïnal
Concept & Development : Baudouin d'Aumeries
Co-Development & Prog : Marc-Olivier Méhu
Technical & hardware support : Manuel Goepfert

Contact : metmap@orbifly.com




SOURCES & CREDITS :

   NOAA